Time;durP1;ratioP1;P1;durP2;ratioP2;P2;SDS_P1;SDS_P2;PMS_P1;PMS_P2;Temp;Humidity;BMP_temperature;BMP_pressure;BME280_temperature;BME280_humidity;BME280_pressure;Samples;Min_cycle;Max_cycle;Signal;HPM_P1;HPM_P2
2022/11/16 00:01:33;;;;;;;;;;;;;;;20.94;nan;94871.34;6096839;19;1913;-59
2022/11/16 00:03:36;;;;;;;;;;;;;;;20.96;nan;94868.44;6123595;19;2214;-58
2022/11/16 00:05:40;;;;;;;;;;;;;;;20.98;nan;94861.03;6125247;19;2069;-59
2022/11/16 00:07:43;;;;;;;;;;;;;;;20.95;nan;94859.63;6121624;19;1941;-58
2022/11/16 00:09:46;;;;;;;;;;;;;;;20.97;nan;94859.38;6122900;19;2038;-60
2022/11/16 00:11:50;;;;;;;;;;;;;;;20.98;nan;94866.38;6121238;19;2087;-60
2022/11/16 00:13:54;;;;;;;;;;;;;;;20.97;nan;94868.25;6095885;19;1871;-60
2022/11/16 00:16:00;;;;;;;;;;;;;;;20.98;nan;94861.84;6120992;19;2065;-61
2022/11/16 00:18:03;;;;;;;;;;;;;;;20.99;nan;94878.69;6122525;19;1950;-60
2022/11/16 00:20:07;;;;;;;;;;;;;;;21.01;nan;94871.28;6124280;19;2084;-59
2022/11/16 00:22:10;;;;;;;;;;;;;;;21.01;nan;94860.59;6121135;19;1634;-60
2022/11/16 00:24:15;;;;;;;;;;;;;;;21.05;nan;94861.78;6095788;19;1308;-61
2022/11/16 00:26:18;;;;;;;;;;;;;;;21.05;nan;94856.44;6123649;19;2109;-60
2022/11/16 00:28:21;;;;;;;;;;;;;;;21.05;nan;94853.78;6122159;19;1690;-60
2022/11/16 00:30:24;;;;;;;;;;;;;;;21.04;nan;94848.66;6122416;19;2075;-59
2022/11/16 00:32:30;;;;;;;;;;;;;;;21.02;nan;94859.56;6124120;19;2075;-59
2022/11/16 00:34:34;;;;;;;;;;;;;;;21.01;nan;94844.56;6122950;19;1872;-60
2022/11/16 00:36:37;;;;;;;;;;;;;;;21.01;nan;94844.56;6095718;19;2105;-60
2022/11/16 00:38:41;;;;;;;;;;;;;;;21.00;nan;94849.09;6122219;19;2232;-59
2022/11/16 00:40:44;;;;;;;;;;;;;;;21.02;nan;94846.19;6121704;19;2102;-62
2022/11/16 00:42:47;;;;;;;;;;;;;;;21.01;nan;94849.91;6123253;19;1927;-59
2022/11/16 00:44:51;;;;;;;;;;;;;;;21.01;nan;94849.91;6122056;19;2103;-63
2022/11/16 00:46:54;;;;;;;;;;;;;;;21.00;nan;94848.28;6110282;19;1912;-60
2022/11/16 00:49:00;;;;;;;;;;;;;;;21.07;nan;94837.53;6107533;19;1939;-59
2022/11/16 00:51:03;;;;;;;;;;;;;;;21.06;nan;94836.72;6118413;19;2160;-59
2022/11/16 00:53:07;;;;;;;;;;;;;;;21.03;nan;94831.81;6120509;19;1999;-58
2022/11/16 00:55:10;;;;;;;;;;;;;;;21.03;nan;94831.81;6121531;19;1964;-59
2022/11/16 00:57:13;;;;;;;;;;;;;;;21.01;nan;94834.69;6122860;19;1838;-61
2022/11/16 00:59:17;;;;;;;;;;;;;;;21.00;nan;94826.94;6093450;19;1777;-60
2022/11/16 01:01:20;;;;;;;;;;;;;;;21.01;nan;94825.88;6119836;19;1939;-60
2022/11/16 01:03:23;;;;;;;;;;;;;;;21.01;nan;94817.88;6123350;19;2012;-58
2022/11/16 01:05:29;;;;;;;;;;;;;;;20.99;nan;94818.06;6120766;19;1952;-59
2022/11/16 01:07:32;;;;;;;;;;;;;;;21.02;nan;94820.31;6122036;19;1764;-60
2022/11/16 01:09:36;;;;;;;;;;;;;;;21.01;nan;94817.88;6110480;19;1928;-60
2022/11/16 01:13:55;;;;;;;;;;;;;;;21.00;nan;94806.38;6122062;19;1853;-59
2022/11/16 01:15:59;;;;;;;;;;;;;;;21.01;nan;94799.16;6121350;19;2036;-58
2022/11/16 01:18:02;;;;;;;;;;;;;;;21.07;nan;94806.28;6121787;19;1998;-57
2022/11/16 01:20:06;;;;;;;;;;;;;;;21.18;nan;94810.94;6121129;19;1790;-58
2022/11/16 01:22:12;;;;;;;;;;;;;;;21.23;nan;94804.97;6094193;19;1908;-58
2022/11/16 01:24:15;;;;;;;;;;;;;;;21.13;nan;94800.06;6118734;19;2061;-58
2022/11/16 01:26:18;;;;;;;;;;;;;;;21.07;nan;94795.59;6119230;19;1950;-59
2022/11/16 01:28:22;;;;;;;;;;;;;;;21.06;nan;94794.00;6120444;19;1901;-57
2022/11/16 01:30:25;;;;;;;;;;;;;;;21.09;nan;94803.41;6122406;19;1901;-57
2022/11/16 01:32:28;;;;;;;;;;;;;;;21.03;nan;94802.44;6108751;19;1911;-58
2022/11/16 01:34:32;;;;;;;;;;;;;;;21.05;nan;94792.34;6106691;19;1977;-58
2022/11/16 01:36:35;;;;;;;;;;;;;;;21.04;nan;94801.41;6118893;19;1050;-59
2022/11/16 01:38:41;;;;;;;;;;;;;;;21.01;nan;94788.47;6119252;19;2131;-60
2022/11/16 01:40:45;;;;;;;;;;;;;;;21.01;nan;94791.16;6118096;19;1037;-60
2022/11/16 01:42:48;;;;;;;;;;;;;;;21.01;nan;94791.16;6119171;19;1020;-59
2022/11/16 01:45:02;;;;;;;;;;;;;;;21.01;nan;94788.47;6095490;19;1915;-58
2022/11/16 01:47:07;;;;;;;;;;;;;;;21.01;nan;94791.97;6119324;19;2179;-60
2022/11/16 01:49:13;;;;;;;;;;;;;;;21.03;nan;94794.44;6120529;19;1918;-62
2022/11/16 01:51:16;;;;;;;;;;;;;;;21.00;nan;94790.34;6117448;19;2071;-59
2022/11/16 01:53:20;;;;;;;;;;;;;;;21.00;nan;94782.31;6119688;19;1819;-59
2022/11/16 01:55:27;;;;;;;;;;;;;;;20.99;nan;94798.56;6107559;19;1877;-59
2022/11/16 01:57:33;;;;;;;;;;;;;;;20.99;nan;94793.22;6106131;19;1847;-61
2022/11/16 01:59:36;;;;;;;;;;;;;;;21.01;nan;94791.16;6119307;19;2082;-59
2022/11/16 02:01:40;;;;;;;;;;;;;;;20.97;nan;94788.13;6120788;19;2061;-60
2022/11/16 02:03:43;;;;;;;;;;;;;;;21.01;nan;94780.47;6119380;19;2191;-59
2022/11/16 02:05:52;;;;;;;;;;;;;;;20.99;nan;94782.53;6119172;19;2115;-59
2022/11/16 02:10:25;;;;;;;;;;;;;;;21.01;nan;94780.47;6120573;19;1858;-60
2022/11/16 02:12:39;;;;;;;;;;;;;;;20.99;nan;94782.53;6119584;19;1667;-60
2022/11/16 02:14:54;;;;;;;;;;;;;;;21.00;nan;94771.63;6118334;19;1926;-60
2022/11/16 02:17:02;;;;;;;;;;;;;;;20.98;nan;94780.91;6120323;19;1888;-59
2022/11/16 02:19:15;;;;;;;;;;;;;;;21.00;nan;94768.16;6093474;19;1915;-58
2022/11/16 02:21:25;;;;;;;;;;;;;;;20.97;nan;94765.91;6118345;19;2127;-60
2022/11/16 02:23:43;;;;;;;;;;;;;;;20.99;nan;94761.16;6120582;19;1857;-59
2022/11/16 02:25:51;;;;;;;;;;;;;;;21.01;nan;94770.59;6119751;19;2111;-65
2022/11/16 02:28:10;;;;;;;;;;;;;;;21.01;nan;94764.44;6120105;19;1667;-65
2022/11/16 02:30:16;;;;;;;;;;;;;;;21.04;nan;94773.88;6096493;19;1857;-63
2022/11/16 02:32:22;;;;;;;;;;;;;;;21.06;nan;94767.28;6120188;19;2150;-66
2022/11/16 02:34:28;;;;;;;;;;;;;;;21.09;nan;94764.16;6119344;19;1880;-66
2022/11/16 02:36:32;;;;;;;;;;;;;;;21.05;nan;94760.28;6119471;19;1896;-65
2022/11/16 02:38:39;;;;;;;;;;;;;;;21.01;nan;94764.44;6118913;19;1864;-67
2022/11/16 02:40:46;;;;;;;;;;;;;;;21.02;nan;94763.41;6117865;19;970;-66
2022/11/16 02:42:52;;;;;;;;;;;;;;;21.02;nan;94764.19;6098739;19;2105;-66
2022/11/16 02:44:57;;;;;;;;;;;;;;;21.00;nan;94760.97;6118678;19;2106;-66
2022/11/16 02:47:04;;;;;;;;;;;;;;;20.99;nan;94759.31;6118070;19;1939;-65
2022/11/16 02:49:10;;;;;;;;;;;;;;;20.98;nan;94760.34;6119359;19;1851;-65
2022/11/16 02:51:14;;;;;;;;;;;;;;;21.02;nan;94758.06;6115829;19;2107;-65
2022/11/16 02:53:17;;;;;;;;;;;;;;;21.02;nan;94760.72;6090724;19;1833;-68
2022/11/16 02:55:21;;;;;;;;;;;;;;;21.10;nan;94762.31;6118379;19;2024;-65
2022/11/16 02:57:30;;;;;;;;;;;;;;;21.14;nan;94748.28;6120542;19;2061;-67
2022/11/16 02:59:38;;;;;;;;;;;;;;;21.27;nan;94746.53;6117206;19;1916;-66
2022/11/16 03:01:43;;;;;;;;;;;;;;;21.39;nan;94747.41;6119500;19;2023;-68
2022/11/16 03:03:51;;;;;;;;;;;;;;;20.85;nan;94744.44;6106109;19;2221;-66
2022/11/16 03:05:56;;;;;;;;;;;;;;;20.88;nan;94746.69;6104789;19;1932;-67
2022/11/16 03:08:04;;;;;;;;;;;;;;;20.93;nan;94749.50;6118334;19;1995;-68
2022/11/16 03:10:08;;;;;;;;;;;;;;;20.95;nan;94743.97;6116929;19;1835;-65
2022/11/16 03:12:10;;;;;;;;;;;;;;;20.99;nan;94745.13;6119636;19;2105;-68
2022/11/16 03:14:16;;;;;;;;;;;;;;;20.99;nan;94742.47;6116241;19;1886;-66
2022/11/16 03:16:21;;;;;;;;;;;;;;;20.99;nan;94735.25;6091031;19;2052;-66
2022/11/16 03:18:26;;;;;;;;;;;;;;;20.99;nan;94734.44;6120034;19;1925;-65
2022/11/16 03:20:33;;;;;;;;;;;;;;;21.02;nan;94739.34;6122958;19;1939;-67
2022/11/16 03:22:40;;;;;;;;;;;;;;;21.01;nan;94733.19;6123999;19;1892;-68
2022/11/16 03:24:44;;;;;;;;;;;;;;;21.00;nan;94736.09;6125521;19;2097;-66
2022/11/16 03:26:51;;;;;;;;;;;;;;;21.04;nan;94737.28;6112566;19;1978;-68
2022/11/16 03:28:58;;;;;;;;;;;;;;;21.06;nan;94731.69;6111033;19;2126;-66
2022/11/16 03:31:04;;;;;;;;;;;;;;;21.04;nan;94741.81;6125740;19;1792;-67
2022/11/16 03:33:12;;;;;;;;;;;;;;;21.01;nan;94735.06;6124167;19;2110;-67
2022/11/16 03:35:19;;;;;;;;;;;;;;;20.64;nan;94720.84;6123471;19;1956;-65
2022/11/16 03:37:26;;;;;;;;;;;;;;;20.44;nan;94716.47;6123495;19;1846;-67
2022/11/16 03:39:32;;;;;;;;;;;;;;;20.72;nan;94721.38;6096473;19;1853;-66
2022/11/16 03:41:37;;;;;;;;;;;;;;;20.93;nan;94722.00;6122339;19;1651;-67
2022/11/16 03:43:42;;;;;;;;;;;;;;;20.97;nan;94728.50;6123138;19;1915;-67
2022/11/16 03:45:46;;;;;;;;;;;;;;;21.12;nan;94734.31;6122193;19;1933;-65
2022/11/16 03:47:49;;;;;;;;;;;;;;;21.21;nan;94725.00;6122567;19;975;-66
2022/11/16 03:49:53;;;;;;;;;;;;;;;21.31;nan;94727.16;6111552;19;1941;-65
2022/11/16 03:51:56;;;;;;;;;;;;;;;21.34;nan;94731.22;6112009;19;1749;-67
2022/11/16 03:54:02;;;;;;;;;;;;;;;21.29;nan;94729.25;6125455;19;2086;-67
2022/11/16 03:56:05;;;;;;;;;;;;;;;21.21;nan;94724.19;6121822;19;1923;-67
2022/11/16 03:58:09;;;;;;;;;;;;;;;21.17;nan;94726.50;6124443;19;1918;-62
2022/11/16 04:00:13;;;;;;;;;;;;;;;21.20;nan;94730.59;6125423;19;1921;-63
2022/11/16 04:02:16;;;;;;;;;;;;;;;21.24;nan;94721.06;6096098;19;2151;-62
2022/11/16 04:24:52;;;;;;;;;;;;;;;20.93;nan;94693.41;6097510;19;2075;-63
2022/11/16 04:29:16;;;;;;;;;;;;;;;20.90;nan;94691.19;6122226;19;1886;-62
2022/11/16 04:38:06;;;;;;;;;;;;;;;20.95;nan;94691.34;6122918;19;2043;-63
2022/11/16 04:40:10;;;;;;;;;;;;;;;20.93;nan;94687.28;6121213;19;2028;-64
2022/11/16 04:42:18;;;;;;;;;;;;;;;20.93;nan;94682.75;6122388;19;1684;-62
2022/11/16 04:44:22;;;;;;;;;;;;;;;20.94;nan;94688.88;6120542;19;1612;-63
2022/11/16 04:48:40;;;;;;;;;;;;;;;20.93;nan;94680.06;6105179;19;1918;-61
2022/11/16 04:50:44;;;;;;;;;;;;;;;21.01;nan;94678.97;6121658;19;2181;-63
2022/11/16 04:52:48;;;;;;;;;;;;;;;21.02;nan;94681.41;6120691;19;2319;-61
2022/11/16 04:54:51;;;;;;;;;;;;;;;20.99;nan;94689.06;6122451;19;2102;-62
2022/11/16 04:56:54;;;;;;;;;;;;;;;20.96;nan;94689.50;6118105;19;2199;-63
2022/11/16 04:59:00;;;;;;;;;;;;;;;20.93;nan;94684.59;6094420;19;2242;-62
2022/11/16 05:01:04;;;;;;;;;;;;;;;20.90;nan;94687.72;6122815;19;1942;-61
2022/11/16 05:03:07;;;;;;;;;;;;;;;20.90;nan;94682.38;6119702;19;1833;-61
2022/11/16 05:05:11;;;;;;;;;;;;;;;20.89;nan;94683.41;6117902;19;1839;-62
2022/11/16 05:07:15;;;;;;;;;;;;;;;20.93;nan;94681.94;6117817;19;2017;-62
2022/11/16 05:09:18;;;;;;;;;;;;;;;19.22;nan;94675.72;6114670;19;1859;-63
2022/11/16 05:11:21;;;;;;;;;;;;;;;;;;6101633;19;1583;-60
2022/11/16 05:13:24;;;;;;;;;;;;;;;;;;6119985;19;2122;-59
2022/11/16 05:15:27;;;;;;;;;;;;;;;;;;6120278;19;2104;-60
2022/11/16 05:17:30;;;;;;;;;;;;;;;;;;6117597;19;2123;-60
2022/11/16 05:21:48;;;;;;;;;;;;;;;;;;6096009;19;1855;-60
2022/11/16 05:26:06;;;;;;;;;;;;;;;;;;6121168;19;2080;-62
2022/11/16 05:28:09;;;;;;;;;;;;;;;;;;6121673;19;2260;-61
2022/11/16 05:30:12;;;;;;;;;;;;;;;;;;6120716;19;1812;-60
2022/11/16 05:32:15;;;;;;;;;;;;;;;;;;6118148;19;1125;-62
2022/11/16 05:34:18;;;;;;;;;;;;;;;;;;6095114;19;1398;-60
2022/11/16 05:36:21;;;;;;;;;;;;;;;;;;6118073;19;1971;-60
2022/11/16 05:38:24;;;;;;;;;;;;;;;;;;6117155;19;1148;-60
2022/11/16 05:40:27;;;;;;;;;;;;;;;;;;6117266;19;1291;-60
2022/11/16 05:42:30;;;;;;;;;;;;;;;;;;6115623;19;1048;-61
2022/11/16 05:44:33;;;;;;;;;;;;;;;;;;6093241;19;1792;-62
2022/11/16 05:46:36;;;;;;;;;;;;;;;;;;6118627;19;1329;-59
2022/11/16 05:48:39;;;;;;;;;;;;;;;;;;6116511;19;1124;-60
2022/11/16 05:50:42;;;;;;;;;;;;;;;;;;6114813;19;1029;-59
2022/11/16 05:52:45;;;;;;;;;;;;;;;;;;6115225;19;1053;-59
2022/11/16 05:54:48;;;;;;;;;;;;;;;;;;6113949;19;1145;-61
2022/11/16 05:56:51;;;;;;;;;;;;;;;;;;6088993;19;1841;-61
2022/11/16 05:58:54;;;;;;;;;;;;;;;;;;6114172;19;1576;-60
2022/11/16 06:00:57;;;;;;;;;;;;;;;;;;6114756;19;1582;-59
2022/11/16 06:03:02;;;;;;;;;;;;;;;;;;6114190;19;1033;-59
2022/11/16 06:05:05;;;;;;;;;;;;;;;;;;6117167;19;1132;-60
2022/11/16 06:07:08;;;;;;;;;;;;;;;;;;6097753;19;1355;-60
2022/11/16 06:09:11;;;;;;;;;;;;;;;;;;6112787;19;1063;-63
2022/11/16 06:11:14;;;;;;;;;;;;;;;;;;6117740;19;1065;-61
2022/11/16 06:13:17;;;;;;;;;;;;;;;;;;6117118;19;1617;-59
2022/11/16 06:15:20;;;;;;;;;;;;;;;;;;6118808;19;1044;-59
2022/11/16 06:17:23;;;;;;;;;;;;;;;;;;6117713;19;1139;-59
2022/11/16 06:19:26;;;;;;;;;;;;;;;;;;6092448;19;1462;-60
2022/11/16 06:21:29;;;;;;;;;;;;;;;;;;6116873;19;1873;-59
2022/11/16 06:23:32;;;;;;;;;;;;;;;;;;6116738;19;1140;-58
2022/11/16 06:25:35;;;;;;;;;;;;;;;;;;6117485;19;1034;-61
2022/11/16 06:27:38;;;;;;;;;;;;;;;;;;6116316;19;1513;-58
2022/11/16 06:29:41;;;;;;;;;;;;;;;;;;6102979;19;1234;-60
2022/11/16 06:31:44;;;;;;;;;;;;;;;;;;6104487;19;1812;-60
2022/11/16 06:33:47;;;;;;;;;;;;;;;;;;6116631;19;1625;-59
2022/11/16 06:35:50;;;;;;;;;;;;;;;;;;6117837;19;1838;-59
2022/11/16 06:37:54;;;;;;;;;;;;;;;;;;6115980;19;1042;-59
2022/11/16 06:39:57;;;;;;;;;;;;;;;;;;6116833;19;1233;-60
2022/11/16 06:42:00;;;;;;;;;;;;;;;;;;6090809;19;1436;-59
2022/11/16 06:44:03;;;;;;;;;;;;;;;;;;6116613;19;1208;-60
2022/11/16 06:46:06;;;;;;;;;;;;;;;;;;6116643;19;1027;-59
2022/11/16 06:48:09;;;;;;;;;;;;;;;;;;6115401;19;1148;-60
2022/11/16 06:50:12;;;;;;;;;;;;;;;;;;6116092;19;1057;-59
2022/11/16 06:52:15;;;;;;;;;;;;;;;;;;6103395;19;1250;-59
2022/11/16 06:54:18;;;;;;;;;;;;;;;;;;6107838;19;2098;-59
2022/11/16 06:56:21;;;;;;;;;;;;;;;;;;6121428;19;1849;-60
2022/11/16 06:58:24;;;;;;;;;;;;;;;;;;6122598;19;1214;-59
2022/11/16 07:00:26;;;;;;;;;;;;;;;;;;6121279;19;1045;-59
2022/11/16 07:02:29;;;;;;;;;;;;;;;;;;6121328;19;1513;-60
2022/11/16 07:04:32;;;;;;;;;;;;;;;;;;6095397;19;1724;-59
2022/11/16 07:06:35;;;;;;;;;;;;;;;;;;6121530;19;1545;-59
2022/11/16 07:08:38;;;;;;;;;;;;;;;;;;6122691;19;983;-59
2022/11/16 07:10:41;;;;;;;;;;;;;;;;;;6121012;19;1045;-59
2022/11/16 07:12:44;;;;;;;;;;;;;;;;;;6123051;19;1577;-60
2022/11/16 07:14:47;;;;;;;;;;;;;;;;;;6108559;19;1648;-59
2022/11/16 07:16:50;;;;;;;;;;;;;;;;;;6108169;19;1864;-59
2022/11/16 07:18:55;;;;;;;;;;;;;;;;;;6120571;19;1994;-61
2022/11/16 07:20:58;;;;;;;;;;;;;;;;;;6120556;19;989;-59
2022/11/16 07:23:01;;;;;;;;;;;;;;;;;;6121013;19;1089;-60
2022/11/16 07:25:04;;;;;;;;;;;;;;;;;;6121888;19;1347;-59
2022/11/16 07:27:07;;;;;;;;;;;;;;;;;;6096540;19;1389;-60
2022/11/16 07:29:10;;;;;;;;;;;;;;;;;;6120394;19;1105;-59
2022/11/16 07:31:13;;;;;;;;;;;;;;;;;;6120005;19;1502;-64
2022/11/16 07:33:15;;;;;;;;;;;;;;;;;;6121019;19;1071;-60
2022/11/16 07:35:18;;;;;;;;;;;;;;;;;;6120651;19;1160;-63
2022/11/16 07:37:21;;;;;;;;;;;;;;;;;;6113818;19;1841;-60
2022/11/16 07:39:24;;;;;;;;;;;;;;;;;;6103604;19;1418;-59
2022/11/16 07:41:27;;;;;;;;;;;;;;;;;;6122566;19;1017;-62
2022/11/16 07:43:31;;;;;;;;;;;;;;;;;;6122381;19;1116;-60
2022/11/16 07:45:34;;;;;;;;;;;;;;;;;;6121629;19;1026;-62
2022/11/16 07:47:37;;;;;;;;;;;;;;;;;;6122690;19;1044;-60
2022/11/16 07:49:40;;;;;;;;;;;;;;;;;;6095693;19;1975;-61
2022/11/16 07:51:43;;;;;;;;;;;;;;;;;;6120447;19;1059;-60
2022/11/16 07:53:45;;;;;;;;;;;;;;;;;;6121254;19;1046;-61
2022/11/16 07:55:48;;;;;;;;;;;;;;;;;;6121881;19;1065;-62
2022/11/16 07:57:51;;;;;;;;;;;;;;;;;;6120503;19;1841;-60
2022/11/16 07:59:54;;;;;;;;;;;;;;;;;;6119269;19;1116;-61
2022/11/16 08:01:57;;;;;;;;;;;;;;;;;;6094461;19;1371;-60
2022/11/16 08:04:01;;;;;;;;;;;;;;;;;;6119370;19;963;-60
2022/11/16 08:06:04;;;;;;;;;;;;;;;;;;6120074;19;1285;-60
2022/11/16 08:08:07;;;;;;;;;;;;;;;;;;6121426;19;1057;-59
2022/11/16 08:10:10;;;;;;;;;;;;;;;;;;6121355;19;1021;-58
2022/11/16 08:12:13;;;;;;;;;;;;;;;;;;6094726;19;1417;-60
2022/11/16 08:14:18;;;;;;;;;;;;;;;;;;6119254;19;1331;-60
2022/11/16 08:16:20;;;;;;;;;;;;;;;;;;6118641;19;1882;-61
2022/11/16 08:18:23;;;;;;;;;;;;;;;;;;6120074;19;1038;-61
2022/11/16 08:20:30;;;;;;;;;;;;;;;20.86;nan;94630.44;6118888;19;1045;-60
2022/11/16 08:22:33;;;;;;;;;;;;;;;20.09;nan;94634.22;6121169;19;1054;-61
2022/11/16 08:24:36;;;;;;;;;;;;;;;19.70;nan;94627.34;6092858;19;1349;-61
2022/11/16 08:26:40;;;;;;;;;;;;;;;20.06;nan;94631.16;6119270;19;1156;-61
2022/11/16 08:28:43;;;;;;;;;;;;;;;20.30;nan;94622.34;6121524;19;1017;-60
2022/11/16 08:30:48;;;;;;;;;;;;;;;20.46;nan;94618.34;6120129;19;971;-61
2022/11/16 08:32:52;;;;;;;;;;;;;;;20.55;nan;94616.19;6119656;19;1049;-60
2022/11/16 08:34:55;;;;;;;;;;;;;;;20.62;nan;94616.94;6093499;19;1333;-61
2022/11/16 08:37:01;;;;;;;;;;;;;;;20.63;nan;94615.91;6120283;19;1853;-61
2022/11/16 08:39:04;;;;;;;;;;;;;;;20.65;nan;94613.81;6119101;19;1056;-60
2022/11/16 08:41:07;;;;;;;;;;;;;;;20.67;nan;94603.75;6118786;19;1040;-60
2022/11/16 08:43:11;;;;;;;;;;;;;;;20.69;nan;94607.00;6121021;19;1010;-60
2022/11/16 08:45:14;;;;;;;;;;;;;;;20.71;nan;94604.91;6118711;19;1037;-61
2022/11/16 08:47:17;;;;;;;;;;;;;;;20.73;nan;94596.69;6092998;19;1357;-60
2022/11/16 08:49:21;;;;;;;;;;;;;;;20.78;nan;94608.34;6120701;19;1056;-61
2022/11/16 08:51:24;;;;;;;;;;;;;;;20.77;nan;94609.38;6120914;19;1381;-59
2022/11/16 08:53:30;;;;;;;;;;;;;;;20.77;nan;94595.19;6120131;19;1009;-61
2022/11/16 08:55:34;;;;;;;;;;;;;;;20.89;nan;94605.97;6120540;19;1022;-64
2022/11/16 08:57:38;;;;;;;;;;;;;;;20.90;nan;94605.75;6093912;19;1854;-64
2022/11/16 08:59:41;;;;;;;;;;;;;;;20.95;nan;94605.06;6117464;19;1167;-62
2022/11/16 09:01:44;;;;;;;;;;;;;;;20.91;nan;94604.69;6119513;19;1287;-63
2022/11/16 09:03:48;;;;;;;;;;;;;;;20.88;nan;94602.47;6120483;19;1038;-59
2022/11/16 09:05:51;;;;;;;;;;;;;;;20.85;nan;94613.59;6118938;19;975;-62
2022/11/16 09:07:54;;;;;;;;;;;;;;;20.83;nan;94599.69;6118030;19;1302;-62
2022/11/16 09:10:00;;;;;;;;;;;;;;;20.81;nan;94603.59;6093660;19;2071;-62
2022/11/16 09:12:04;;;;;;;;;;;;;;;20.82;nan;94602.56;6119770;19;1050;-62
2022/11/16 09:14:07;;;;;;;;;;;;;;;20.82;nan;94606.03;6120009;19;1065;-62
2022/11/16 09:16:10;;;;;;;;;;;;;;;20.85;nan;94594.09;6117551;19;1040;-59
2022/11/16 09:18:14;;;;;;;;;;;;;;;20.84;nan;94592.47;6118634;19;1849;-61
2022/11/16 09:20:17;;;;;;;;;;;;;;;20.84;nan;94593.28;6096460;19;1276;-62
2022/11/16 09:22:20;;;;;;;;;;;;;;;20.84;nan;94576.44;6117084;19;1133;-60
2022/11/16 09:24:24;;;;;;;;;;;;;;;20.86;nan;94587.69;6118510;19;1044;-59
2022/11/16 09:26:30;;;;;;;;;;;;;;;20.83;nan;94574.81;6119269;19;1054;-59
2022/11/16 09:28:33;;;;;;;;;;;;;;;20.73;nan;94565.47;6118248;19;2123;-61
2022/11/16 09:30:37;;;;;;;;;;;;;;;20.69;nan;94563.50;6118083;19;1101;-60
2022/11/16 09:32:40;;;;;;;;;;;;;;;20.67;nan;94561.03;6092125;19;1372;-59
2022/11/16 09:34:43;;;;;;;;;;;;;;;20.69;nan;94555.47;6119119;19;1126;-59
2022/11/16 09:36:46;;;;;;;;;;;;;;;20.67;nan;94544.19;6117329;19;1853;-59
2022/11/16 09:38:51;;;;;;;;;;;;;;;20.66;nan;94543.38;6117805;19;1237;-59
2022/11/16 09:40:54;;;;;;;;;;;;;;;20.67;nan;94534.34;6117335;19;984;-61
2022/11/16 09:43:03;;;;;;;;;;;;;;;20.69;nan;94526.13;6098346;19;1291;-60
2022/11/16 09:45:09;;;;;;;;;;;;;;;20.70;nan;94536.56;6118278;19;1382;-60
2022/11/16 09:47:17;;;;;;;;;;;;;;;20.75;nan;94530.56;6117646;19;1125;-59
2022/11/16 09:49:22;;;;;;;;;;;;;;;20.77;nan;94523.94;6117647;19;983;-59
2022/11/16 09:51:28;;;;;;;;;;;;;;;20.83;nan;94522.25;6116965;19;995;-59
2022/11/16 09:53:34;;;;;;;;;;;;;;;20.86;nan;94515.59;6117627;19;1094;-60
2022/11/16 09:55:39;;;;;;;;;;;;;;;20.84;nan;94515.84;6097169;19;2024;-59
2022/11/16 09:57:42;;;;;;;;;;;;;;;20.84;nan;94509.69;6118531;19;1842;-59
2022/11/16 09:59:50;;;;;;;;;;;;;;;20.82;nan;94507.25;6116396;19;1148;-60
2022/11/16 10:01:56;;;;;;;;;;;;;;;20.81;nan;94507.47;6117297;19;1612;-61
2022/11/16 10:04:03;;;;;;;;;;;;;;;20.82;nan;94506.44;6117314;19;1070;-60
2022/11/16 10:06:07;;;;;;;;;;;;;;;20.84;nan;94491.81;6090706;19;1370;-59
2022/11/16 10:08:14;;;;;;;;;;;;;;;20.83;nan;94492.03;6117339;19;1041;-60
2022/11/16 10:10:18;;;;;;;;;;;;;;;20.84;nan;94485.66;6116278;19;1066;-59
2022/11/16 10:12:24;;;;;;;;;;;;;;;20.88;nan;94490.31;6116998;19;1014;-60
2022/11/16 10:14:42;;;;;;;;;;;;;;;20.89;nan;94475.13;6116669;19;1015;-60
2022/11/16 10:16:54;;;;;;;;;;;;;;;20.94;nan;94473.41;6103659;19;1991;-59
2022/11/16 10:19:00;;;;;;;;;;;;;;;20.97;nan;94464.09;6105695;19;1982;-60
2022/11/16 10:21:15;;;;;;;;;;;;;;;20.99;nan;94468.19;6115824;19;1039;-59
2022/11/16 10:23:24;;;;;;;;;;;;;;;21.04;nan;94464.84;6116444;19;920;-59
2022/11/16 10:25:32;;;;;;;;;;;;;;;21.07;nan;94453.69;6116460;19;1054;-60
2022/11/16 10:27:46;;;;;;;;;;;;;;;21.08;nan;94454.50;6117712;19;1041;-60
2022/11/16 10:29:54;;;;;;;;;;;;;;;21.09;nan;94459.63;6107513;19;1259;-60
2022/11/16 10:32:12;;;;;;;;;;;;;;;21.07;nan;94448.34;6122130;19;1097;-58
2022/11/16 10:34:20;;;;;;;;;;;;;;;21.07;nan;94451.03;6121751;19;1009;-59
2022/11/16 10:36:26;;;;;;;;;;;;;;;21.08;nan;94441.16;6120837;19;1058;-60
2022/11/16 10:38:31;;;;;;;;;;;;;;;21.04;nan;94437.31;6121710;19;1845;-61
2022/11/16 10:40:38;;;;;;;;;;;;;;;20.95;nan;94434.16;6097549;19;1696;-59
2022/11/16 10:42:42;;;;;;;;;;;;;;;20.98;nan;94433.69;6123535;19;983;-59
2022/11/16 10:44:47;;;;;;;;;;;;;;;21.01;nan;94430.56;6121296;19;1022;-59
2022/11/16 10:46:56;;;;;;;;;;;;;;;21.04;nan;94431.97;6121433;19;1141;-59
2022/11/16 10:49:10;;;;;;;;;;;;;;;21.06;nan;94430.72;6121988;19;982;-59
2022/11/16 10:51:13;;;;;;;;;;;;;;;21.08;nan;94428.59;6097949;19;1385;-60
2022/11/16 10:53:17;;;;;;;;;;;;;;;21.07;nan;94426.97;6121054;19;2139;-59
2022/11/16 10:55:22;;;;;;;;;;;;;;;21.07;nan;94415.50;6121120;19;1050;-58
2022/11/16 10:57:26;;;;;;;;;;;;;;;21.09;nan;94424.91;6121292;19;1841;-59
2022/11/16 10:59:39;;;;;;;;;;;;;;;20.17;nan;94422.41;6120286;19;1303;-60
2022/11/16 11:01:46;;;;;;;;;;;;;;;19.53;nan;94416.53;6120549;19;1314;-63
2022/11/16 11:03:50;;;;;;;;;;;;;;;19.63;nan;94405.34;6106188;19;1796;-60
2022/11/16 11:05:56;;;;;;;;;;;;;;;20.07;nan;94412.28;6120612;19;1066;-61
2022/11/16 11:08:03;;;;;;;;;;;;;;;20.40;nan;94399.59;6121639;19;1045;-58
2022/11/16 11:10:07;;;;;;;;;;;;;;;20.64;nan;94395.97;6120500;19;1045;-59
2022/11/16 11:14:34;;;;;;;;;;;;;;;20.88;nan;94390.69;6097450;19;1843;-62
2022/11/16 11:16:38;;;;;;;;;;;;;;;20.96;nan;94387.69;6123339;19;1101;-62
2022/11/16 11:18:41;;;;;;;;;;;;;;;20.96;nan;94379.69;6121797;19;1859;-64
2022/11/16 11:20:45;;;;;;;;;;;;;;;20.99;nan;94371.22;6122224;19;970;-64
2022/11/16 11:22:54;;;;;;;;;;;;;;;20.99;nan;94366.69;6122931;19;1018;-64
2022/11/16 11:24:58;;;;;;;;;;;;;;;20.99;nan;94360.53;6109588;19;1159;-63
2022/11/16 11:27:01;;;;;;;;;;;;;;;20.95;nan;94359.38;6108109;19;1255;-63
2022/11/16 11:29:09;;;;;;;;;;;;;;;20.95;nan;94362.84;6122570;19;1017;-63
2022/11/16 11:31:21;;;;;;;;;;;;;;;20.95;nan;94354.03;6123361;19;1013;-62
2022/11/16 11:33:25;;;;;;;;;;;;;;;20.95;nan;94346.84;6122665;19;960;-63
2022/11/16 11:35:30;;;;;;;;;;;;;;;20.96;nan;94340.44;6121962;19;1065;-60
2022/11/16 11:37:35;;;;;;;;;;;;;;;20.97;nan;94341.25;6094793;19;1899;-65
2022/11/16 11:39:41;;;;;;;;;;;;;;;20.99;nan;94345.31;6117996;19;991;-60
2022/11/16 11:41:45;;;;;;;;;;;;;;;21.05;nan;94343.59;6122603;19;1050;-61
2022/11/16 11:44:02;;;;;;;;;;;;;;;21.13;nan;94339.78;6119370;19;1050;-61
2022/11/16 11:46:07;;;;;;;;;;;;;;;21.14;nan;94341.38;6122577;19;971;-60
2022/11/16 11:48:22;;;;;;;;;;;;;;;21.14;nan;94344.91;6095064;19;1561;-61
2022/11/16 11:50:27;;;;;;;;;;;;;;;21.14;nan;94341.38;6121785;19;1030;-61
2022/11/16 11:52:36;;;;;;;;;;;;;;;21.13;nan;94334.44;6120538;19;1058;-60
2022/11/16 11:54:46;;;;;;;;;;;;;;;21.12;nan;94328.28;6120012;19;1133;-59
2022/11/16 11:56:49;;;;;;;;;;;;;;;21.12;nan;94325.59;6122820;19;1049;-60
2022/11/16 11:58:53;;;;;;;;;;;;;;;21.09;nan;94317.25;6106234;19;1862;-59
2022/11/16 12:01:01;;;;;;;;;;;;;;;21.09;nan;94312.72;6106757;19;1668;-60
2022/11/16 12:03:19;;;;;;;;;;;;;;;21.12;nan;94317.59;6119977;19;1066;-60
2022/11/16 12:05:35;;;;;;;;;;;;;;;21.09;nan;94310.03;6119002;19;2112;-59
2022/11/16 12:07:46;;;;;;;;;;;;;;;21.06;nan;94304.31;6120851;19;971;-59
2022/11/16 12:09:57;;;;;;;;;;;;;;;21.08;nan;94304.91;6119789;19;1033;-60
2022/11/16 12:12:07;;;;;;;;;;;;;;;21.09;nan;94303.91;6102707;19;1649;-60
2022/11/16 12:14:16;;;;;;;;;;;;;;;21.10;nan;94303.66;6119893;19;987;-58
2022/11/16 12:16:26;;;;;;;;;;;;;;;21.11;nan;94299.13;6121596;19;1283;-60
2022/11/16 12:18:37;;;;;;;;;;;;;;;21.18;nan;94298.00;6119761;19;1851;-65
2022/11/16 12:20:40;;;;;;;;;;;;;;;;;;6120847;19;1010;-63
2022/11/16 12:22:43;;;;;;;;;;;;;;;;;;6095174;19;1443;-64
2022/11/16 12:24:46;;;;;;;;;;;;;;;;;;6121271;19;1044;-65
2022/11/16 12:26:49;;;;;;;;;;;;;;;;;;6120391;19;1057;-64
2022/11/16 12:28:52;;;;;;;;;;;;;;;;;;6121364;19;966;-64
2022/11/16 12:30:55;;;;;;;;;;;;;;;;;;6121234;19;1013;-65
2022/11/16 12:32:58;;;;;;;;;;;;;;;;;;6108544;19;1254;-62
2022/11/16 12:35:01;;;;;;;;;;;;;;;;;;6106952;19;1453;-59
2022/11/16 12:37:04;;;;;;;;;;;;;;;;;;6119504;19;1152;-61
2022/11/16 12:39:07;;;;;;;;;;;;;;;;;;6119457;19;1873;-64
2022/11/16 12:41:10;;;;;;;;;;;;;;;;;;6119120;19;1144;-62
2022/11/16 12:43:13;;;;;;;;;;;;;;;;;;6120206;19;1129;-65
2022/11/16 12:45:16;;;;;;;;;;;;;;;;;;6094921;19;1366;-61
2022/11/16 12:47:21;;;;;;;;;;;;;;;;;;6118975;19;1141;-61
2022/11/16 12:49:25;;;;;;;;;;;;;;;;;;6117956;19;970;-60